Boulder City, Nevada Weather observations

Data are for observation ending at time listed.
 Day   Time    Ave.   Ave.  Ave.  Vector   Max.   Stn.    Total    Solar   Ave.  
  of    of     Air    Rel.  Wind   Wind    Wind   Baro.  Precip.   Rad.    Soil  
Year   Day     Temp.  Hum.  Speed  Dir.    Gust   Pres.                    Temp. 
2026   (PST)    F      %     mph   deg.    mph     mb.     in.     W/m2     F   
------------------------------------------------------------------------------
 245   12:30   94.2     5   10.5   171     19.4   916.4    0.00     881    99.8
 245   12:40   94.9     5    9.8   186     17.6   916.2    0.00     870    100.2
 245   12:50   95.3     5   11.5   191     20.0   916.2    0.00     857    100.5
 245   13:00   95.4     5    9.8   193     18.3   916.8    0.00     843    100.7
 245   13:10   96.3     5   12.1   197     21.1   915.9    0.00     826    101.0
 245   13:20   96.3     4    9.7   176     17.5   915.9    0.00     808    101.2
 245   13:30   96.4     4   12.1   207     18.9   915.8    0.00     790    101.6
 245   13:40   95.6     4   11.9   202     19.9   915.7    0.00     772    101.7
 245   13:50   95.9     4   13.5   200     24.5   915.6    0.00     753    101.9
 245   14:00   95.9     4   10.7   212     18.0   915.4    0.00     730    102.0
 245   14:10   95.9     4   13.1   201     23.5   915.4    0.00     708    102.1
 245   14:20   96.1     4   12.3   203     20.1   915.3    0.00     682    102.2
 245   14:30   96.3     4   11.5   199     19.6   915.3    0.00     655    102.2
 245   14:40   95.7     4   13.2   205     21.8   915.0    0.00     627    102.1
 245   14:50   95.8     4   12.9   206     22.9   915.0    0.00     597    102.2
 245   15:00   95.5     7   12.0   173     22.5   915.0    0.00     566    102.3
 245   15:10   95.8     4   10.7   186     19.0   914.9    0.00     536    102.2
 245   15:20   95.2     4   13.1   202     19.1   914.7    0.00     503    102.2
 245   15:30   95.9     4   11.8   192     18.2   914.7    0.00     470    101.9
 245   15:40   95.0     4   11.6   212     22.6   914.6    0.00     435    101.5
 245   15:50   95.2     4   11.3   196     21.6   914.5    0.00     401    101.4
 245   16:00   95.3     4   10.0   202     18.4   914.5    0.00     366    101.0
 245   16:10   95.2     4   11.4   204     20.1   914.4    0.00     332    100.8
 245   16:20   94.6     4   10.8   216     21.1   914.4    0.00     298    100.6
 245   16:30   94.3     4   10.4   218     19.2   914.4    0.00     263    100.3
 245   16:40   94.0     4   10.6   212     20.2   914.3    0.00     229    100.1
 245   16:50   93.3     4   13.9   218     24.5   914.3    0.00     196    100.0
 245   17:00   92.6     4   12.8   224     19.6   914.2    0.00     164    99.7
 245   17:10   92.3     5   10.8   223     19.4   914.1    0.00     135    99.4
 245   17:20   91.8     5   11.4   223     17.8   914.0    0.00     107    99.2
 245   17:30   91.1     5   11.1   220     19.8   914.0    0.00      81    98.9
 245   17:40   90.4     5   11.9   222     18.4   913.8    0.00      25    98.5
 245   17:50   89.9     5   11.6   225     20.0   913.7    0.00      13    98.3
 245   18:00   89.6     5   10.5   224     16.4   913.7    0.00       9    98.0
 245   18:10   89.2     6   10.5   224     17.5   913.6    0.00       4    97.8
 245   18:20   88.9     6    8.8   218     15.4   913.6    0.00       1    97.5
 245   18:30   88.5     6    6.3   214     12.4   913.6    0.00       0    97.3
 245   18:40   88.2     6    6.9   212     12.8   913.6    0.00       0    97.0
 245   18:50   87.6     6    6.2   212     12.1   913.7    0.00       0    96.7
 245   19:00   87.1     7    6.0   209     10.7   914.6    0.00       0    96.5
 245   19:10   86.5     7    6.0   185     10.5   913.8    0.00       0    96.3
 245   19:20   85.8     7    5.0   167      8.2   913.9    0.00       0    96.0
 245   19:30   84.8     8    3.3   139      6.7   914.0    0.00       0    95.8
 245   19:40   84.2     8    2.5   150      5.8   914.1    0.00       0    95.6
 245   19:50   82.5     8    1.3   263      3.1   914.1    0.00       0    95.4
 245   20:00   81.0     9    2.1   252      3.8   914.1    0.00       0    95.2
 245   20:10   81.2     9    2.6   256      5.6   914.2    0.00       0    95.0
 245   20:20   81.8     9    3.7   246      5.3   914.1    0.00       0    94.8
 245   20:30   81.4     9    3.9   237      6.7   914.1    0.00       0    94.5
 245   20:40   81.7     9    5.3   239      7.2   914.0    0.00       0    94.3
 245   20:50   82.3     9    5.8   232      9.5   913.9    0.00       0    94.0
 245   21:00   83.2     8    6.1   226      9.1   914.0    0.00       0    93.8
 245   21:10   83.1     8    5.4   217      7.9   914.0    0.00       0    93.5
 245   21:20   82.3     9    5.0   175      9.6   913.9    0.00       0    93.3
 245   21:30   81.2    10    7.7   183     12.1   913.9    0.00       0    93.1
 245   21:40   81.2     9    5.1   207      9.1   913.8    0.00       0    92.9
 245   21:50   81.3     9    7.1   232     11.5   913.8    0.00       0    92.6
 245   22:00   80.8     9    5.8   227      9.6   913.8    0.00       0    92.4
 245   22:10   80.2     9    4.2   214      7.9   914.0    0.00       0    92.2
 245   22:20   79.2    10    4.0   182      6.4   914.0    0.00       0    92.0
 245   22:30   78.5    10    4.6   239      8.1   913.9    0.00       0    91.8
 245   22:40   79.2    10    5.1   242      8.6   913.8    0.00       0    91.6
 245   22:50   79.9     9    6.1   240      9.8   913.8    0.00       0    91.4
 245   23:00   79.9    10    5.9   231      8.8   913.9    0.00       0    91.2
 245   23:10   79.5    10    5.3   221      8.2   913.9    0.00       0    91.0
 245   23:20   78.7    10    4.6   200      7.2   913.9    0.00       0    90.9
 245   23:30   77.8    11    4.5   186      7.5   914.0    0.00       0    90.7
 245   23:40   76.9    11    4.9   230      7.5   913.9    0.00       0    90.5
 245   23:50   76.8    11    5.5   238      8.6   913.8    0.00       0    90.3
 246    0:00   76.8    12    3.3   223      5.1   913.9    0.00       0    90.2
 246    0:10   76.4    12    0.7   269      2.6   913.8    0.00       0    90.0
 246    0:20   75.2    12    2.1   247      4.0   913.8    0.00       0    89.8
 246    0:30   75.2    13    3.1   252      5.8   913.8    0.00       0    89.7
 246    0:40   75.2    13    3.7   246      5.9   913.7    0.00       0    89.5
 246    0:50   74.8    13    4.4   243      6.8   913.8    0.00       0    89.4
 246    1:00   75.0    14    4.9   240      7.5   913.7    0.00       0    89.2
 246    1:10   74.9    14    3.9   214      6.6   913.7    0.00       0    89.0
 246    1:20   74.6    14    4.3   219      6.4   913.7    0.00       0    88.8
 246    1:30   74.8    14    3.8   215      6.4   913.7    0.00       0    88.6
 246    1:40   74.3    15    3.3   217      5.3   913.7    0.00       0    88.6
 246    1:50   74.1    15    3.7   214      6.1   913.7    0.00       0    88.4
 246    2:00   74.6    15    4.8   242      6.8   913.6    0.00       0    88.2
 246    2:10   74.7    15    3.7   256      7.5   913.6    0.00       0    88.0
 246    2:20   75.5    16    5.1   230      8.1   913.6    0.00       0    87.9
 246    2:30   75.7    16    4.8   226      6.6   913.7    0.00       0    87.7
 246    2:40   75.2    16    4.6   230      6.4   913.7    0.00       0    87.5
 246    2:50   74.5    17    4.3   237      6.6   913.6    0.00       0    87.4
 246    3:00   74.0    17    2.9   227      5.8   913.6    0.00       0    87.3
 246    3:10   73.2    18    3.0   234      5.2   913.6    0.00       0    87.2
 246    3:20   74.0    18    3.4   240      5.0   913.6    0.00       0    87.0
 246    3:30   73.6    18    3.5   234      4.7   913.6    0.00       0    86.9
 246    3:40   73.5    18    4.1   234      6.2   913.6    0.00       0    86.8
 246    3:50   73.7    18    4.5   248      6.2   913.5    0.00       0    86.6
 246    4:00   74.2    18    4.8   241      7.2   913.4    0.00       0    86.5
 246    4:10   74.1    18    3.6   224      5.3   913.6    0.00       0    86.4
 246    4:20   73.1    18    2.7   198      4.3   913.6    0.00       0    86.3
 246    4:30   72.4    19    3.6   189      5.3   913.7    0.00       0    86.1
 246    4:40   71.7    19    3.2   201      4.2   913.6    0.00       0    86.1
 246    4:50   71.6    19    3.0   233      4.6   913.5    0.00       0    86.0
 246    5:00   72.2    18    2.9   232      4.0   913.5    0.00       1    85.8
 246    5:10   71.7    18    2.8   187      4.5   913.6    0.00       2    85.6
 246    5:20   71.8    18    3.4   204      4.3   913.6    0.00       6    85.5
 246    5:30   71.1    18    3.3   188      5.4   913.7    0.00      22    85.4
 246    5:40   72.3    17    3.4   194      4.4   913.8    0.00      65    85.2
 246    5:50   73.8    17    3.4   164      6.0   913.9    0.00      97    85.1
 246    6:00   75.3    16    3.7   174      7.0   914.1    0.00     130    85.0
 246    6:10   75.4    16    3.7   189      6.6   914.3    0.00     163    84.9
 246    6:20   76.2    16    2.9   195      4.4   914.5    0.00     196    84.7
 246    6:30   77.2    15    3.0   185      4.8   914.7    0.00     231    84.7
 246    6:40   78.0    14    3.1   168      5.2   914.8    0.00     266    84.7
 246    6:50   78.5    14    3.2   168      6.0   915.0    0.00     302    84.7
 246    7:00   78.9    14    2.9   165      5.6   915.1    0.00     337    84.7
 246    7:10   78.7    14    3.4   165      5.4   915.2    0.00     371    84.8
 246    7:20   79.3    14    3.3   148      5.8   915.2    0.00     405    84.8
 246    7:30   80.7    13    3.6   166      6.1   915.3    0.00     438    85.1
 246    7:40   80.3    13    3.4   175      6.3   915.4    0.00     470    85.3
 246    7:50   80.4    13    4.0   179      6.1   915.5    0.00     502    85.5
 246    8:00   81.4    12    3.2   159      5.4   915.4    0.00     532    85.8
 246    8:10   82.0    12    3.7   172     10.6   915.5    0.00     562    86.1
 246    8:20   81.8    12    3.8   166      9.0   915.5    0.00     591    86.5
 246    8:30   82.3    12    5.6   168     11.0   915.6    0.00     618    87.0
 246    8:40   83.4    12    6.2   173     10.6   915.6    0.00     643    87.3
 246    8:50   83.3    12    5.5   169      9.3   915.7    0.00     667    87.8
 246    9:00   84.1    12    6.6   173     11.1   915.8    0.00     691    88.2
 246    9:10   84.5    12    6.8   172     16.4   915.8    0.00     713    88.8
 246    9:20   85.3    12    5.4   139     17.4   915.8    0.00     733    89.2
 246    9:30   84.9    12    7.6   137     14.9   915.8    0.00     695    89.6
 246    9:40   85.9    12    7.6   142     15.9   915.8    0.00     181    90.2
 246    9:50   86.5    11    9.6   160     15.6   915.7    0.00      44    90.7
 246   10:00   86.9    11    8.6   146     20.9   915.7    0.00     299    91.2
 246   10:10   87.4    11    9.3   143     17.5   915.7    0.00     505    91.7
 246   10:20   87.9    11    7.5   141     21.1   915.5    0.00     588    92.2
 246   10:30   88.1    11   10.5   151     22.5   915.5    0.00     644    92.7
 246   10:40   88.4    11    7.2   126     18.6   915.4    0.00     855    93.1
 246   10:50   88.7    11    7.7   134     19.1   915.2    0.00     863    93.6
 246   11:00   88.8    10    9.4   140     21.7   915.1    0.00     866    94.1
 246   11:10   89.3    10    8.7   132     17.2   915.3    0.00     862    94.5
 246   11:20   89.4    10    7.4   135     16.8   915.0    0.00     869    95.0
 246   11:30   89.5    10    9.1   129     23.2   914.8    0.00     879    95.4
 246   11:40   90.1    10    8.7   140     18.8   914.7    0.00     878    95.8
 246   11:50   90.4    10    8.3   148     18.9   914.6    0.00     877    96.3
 246   12:00   90.6     9    8.5   146     16.6   914.5    0.00     874    96.7
 246   12:10   91.1     9    8.3   144     23.5   914.3    0.00     868    97.1
 246   12:20   91.2     9    7.5   120     19.7   914.2    0.00     861    97.4

Return to Boulder City, Nevada graphs page.


Western Regional Climate Center,wrcc@dri.edu